Mt Champion Express — A8QN4 — position and weather

sailwx.info

Track history (hours):
 
Tides and Currents Weather Stations Pressure Air Temp Water Temp Dewpoint Dewpoint Depression Visibility Wind Speed Wind Dir Waves Ship Positions

Mt Champion Express

Last reported at 2017-Dec-12 09:37 UTC. Time now 2017-Dec-17 09:44 UTC.
Position S 29°42' E 031°51'.

Length 192 m; draft 7 m.

Type: Tanker. MMSI: 636013968.

Date/timePositionNaut miles runAvg speedWind from/ knotsBaromVisibWave heightAir tempDewpointWater temp
2017-Dec-12 09:37S 29°42' E 031°51'110.4
2017-Dec-12 09:29S 29°42' E 031°50'510.3
2017-Dec-12 09:00S 29°43' E 031°44'510.0
2017-Dec-12 08:30S 29°44' E 031°39'510.0
2017-Dec-12 08:00S 29°45' E 031°33'611.4
2017-Dec-12 07:30S 29°46' E 031°27'611.8
2017-Dec-12 07:00S 29°47' E 031°20'612.7
2017-Dec-12 06:30S 29°49' E 031°13'611.1
2017-Dec-12 06:01S 29°50' E 031°07'4 8.0
2017-Dec-12 05:30S 29°53' E 031°03'0 0.8
2017-Dec-12 05:00S 29°53' E 031°03'0 0.0
2017-Dec-12 04:30S 29°53' E 031°03'0 0.0
2017-Dec-12 04:00S 29°53' E 031°03'0 0.0
2017-Dec-12 03:30S 29°53' E 031°03'0 0.0
2017-Dec-12 03:00S 29°53' E 031°03'0 0.0
2017-Dec-12 02:30S 29°53' E 031°03'0 0.0
2017-Dec-12 02:00S 29°53' E 031°03'0 0.0
2017-Dec-12 01:30S 29°53' E 031°03'0 0.0
2017-Dec-12 01:00S 29°53' E 031°03'0 0.0
2017-Dec-12 00:30S 29°53' E 031°03'0 0.0
2017-Dec-11 23:57S 29°53' E 031°03'0 0.0
2017-Dec-11 23:30S 29°53' E 031°03'0 0.0
2017-Dec-11 23:00S 29°53' E 031°03'0 0.0
2017-Dec-11 22:30S 29°53' E 031°03'0 0.0
2017-Dec-11 22:00S 29°53' E 031°03'0 0.0
2017-Dec-11 21:30S 29°53' E 031°03'0 0.0
2017-Dec-11 21:00S 29°53' E 031°03'0 0.0
2017-Dec-11 20:30S 29°53' E 031°03'0 0.0
2017-Dec-11 20:00S 29°53' E 031°03'0 0.0
2017-Dec-11 19:30S 29°53' E 031°03'0 0.0
2017-Dec-11 19:00S 29°53' E 031°03'0 0.0
2017-Dec-11 18:30S 29°53' E 031°03'0 0.0
2017-Dec-11 18:00S 29°53' E 031°03'0 0.0
2017-Dec-11 17:30S 29°53' E 031°03'0 0.0
2017-Dec-11 17:00S 29°53' E 031°03'0 0.0
2017-Dec-11 16:27S 29°53' E 031°03'0 0.0
2017-Dec-11 16:00S 29°53' E 031°03'0 0.0
2017-Dec-11 15:30S 29°53' E 031°03'0 0.0
2017-Dec-11 15:00S 29°53' E 031°03'0 0.0
2017-Dec-11 14:30S 29°53' E 031°03'0 0.0
2017-Dec-11 14:00S 29°53' E 031°03'0 0.0
2017-Dec-11 13:30S 29°53' E 031°03'0 0.0
2017-Dec-11 13:00S 29°53' E 031°03'0 0.0
2017-Dec-11 12:30S 29°53' E 031°03'0 0.0
2017-Dec-11 12:00S 29°53' E 031°03'0 0.0
2017-Dec-11 11:30S 29°53' E 031°03'0 0.0
2017-Dec-11 11:00S 29°53' E 031°03'1 1.9
2017-Dec-11 10:30S 29°52' E 031°03'3 6.2
2017-Dec-11 10:00S 29°50' E 031°05'3 5.6
2017-Dec-11 09:30S 29°47' E 031°06'0 0.5
2017-Dec-11 09:00S 29°47' E 031°06'0 0.4
2017-Dec-11 08:30S 29°47' E 031°07'0 0.4
2017-Dec-11 07:56S 29°47' E 031°06'0 0.0
2017-Dec-11 07:29S 29°47' E 031°06'0 0.1
2017-Dec-11 06:59S 29°47' E 031°06'0 0.0
2017-Dec-11 06:29S 29°47' E 031°06'0 0.1
2017-Dec-11 05:59S 29°47' E 031°06'0 0.0
2017-Dec-11 05:29S 29°47' E 031°06'0 0.1
2017-Dec-11 04:56S 29°47' E 031°06'0 0.0
2017-Dec-11 04:29S 29°47' E 031°06'0 0.0
2017-Dec-11 03:59S 29°47' E 031°06'0 0.0
2017-Dec-11 03:29S 29°46' E 031°06'0 0.0
2017-Dec-11 02:56S 29°47' E 031°06'0 0.0
2017-Dec-11 02:29S 29°47' E 031°06'0 0.0
2017-Dec-11 01:56S 29°47' E 031°06'0 0.1
2017-Dec-11 01:29S 29°46' E 031°06'0 0.1
2017-Dec-11 00:59S 29°47' E 031°06'0 0.0
2017-Dec-11 00:29S 29°46' E 031°06'0 0.0
2017-Dec-10 23:59S 29°46' E 031°06'0 0.0
2017-Dec-10 23:26S 29°46' E 031°06'0 0.0
2017-Dec-10 22:59S 29°46' E 031°06'0 0.1
2017-Dec-10 22:29S 29°47' E 031°06'0 0.1
2017-Dec-10 21:59S 29°46' E 031°06'0 0.0
2017-Dec-10 21:29S 29°46' E 031°06'0 0.0
2017-Dec-10 20:59S 29°46' E 031°06'0 0.0
2017-Dec-10 20:29S 29°46' E 031°06'0 0.0
2017-Dec-10 19:59S 29°47' E 031°06'0 0.0
2017-Dec-10 19:29S 29°46' E 031°06'0 0.0
2017-Dec-10 18:59S 29°46' E 031°06'0 0.0
2017-Dec-10 18:29S 29°47' E 031°06'0 0.0
2017-Dec-10 17:59S 29°46' E 031°06'0 0.0
2017-Dec-10 17:29S 29°46' E 031°06'0 0.0
2017-Dec-10 16:59S 29°46' E 031°06'0 0.0
2017-Dec-10 16:29S 29°46' E 031°07'0 0.0
2017-Dec-10 15:59S 29°46' E 031°06'0 0.0
2017-Dec-10 15:29S 29°46' E 031°07'0 0.0
2017-Dec-10 14:59S 29°46' E 031°06'0 0.0
2017-Dec-10 14:29S 29°46' E 031°07'0 0.0
2017-Dec-10 13:59S 29°46' E 031°07'0 0.0
2017-Dec-10 13:29S 29°46' E 031°07'0 0.0
2017-Dec-10 12:59S 29°46' E 031°07'0 0.0
2017-Dec-10 12:29S 29°46' E 031°07'0 0.0
2017-Dec-10 11:59S 29°46' E 031°07'0 0.0
2017-Dec-10 11:26S 29°46' E 031°07'0 0.0
2017-Dec-10 10:56S 29°46' E 031°07'0 0.0
2017-Dec-10 10:29S 29°46' E 031°07'0 0.0
2017-Dec-10 09:59S 29°46' E 031°07'0 0.0
2017-Dec-10 09:29S 29°46' E 031°07'0 0.0
2017-Dec-10 08:59S 29°46' E 031°07'0 0.0
2017-Dec-10 08:29S 29°46' E 031°07'0 0.0
2017-Dec-10 07:59S 29°46' E 031°07'0 0.0
2017-Dec-10 07:29S 29°46' E 031°07'0 0.0
2017-Dec-10 06:59S 29°46' E 031°07'0 0.0
2017-Dec-10 06:29S 29°46' E 031°07'0 0.0
2017-Dec-10 05:59S 29°46' E 031°07'0 0.0
2017-Dec-10 05:29S 29°46' E 031°07'0 0.0
2017-Dec-10 04:59S 29°46' E 031°07'0 0.0
2017-Dec-10 04:29S 29°46' E 031°07'0 0.0
2017-Dec-10 03:59S 29°46' E 031°07'0 0.0
2017-Dec-10 03:29S 29°46' E 031°07'0 0.0
2017-Dec-10 02:59S 29°46' E 031°07'0 0.0
2017-Dec-10 02:29S 29°46' E 031°07'0 0.0
2017-Dec-10 01:59S 29°46' E 031°07'0 0.0
2017-Dec-10 01:29S 29°46' E 031°07'0 0.0
2017-Dec-10 00:59S 29°46' E 031°07'0 0.0
2017-Dec-10 00:29S 29°46' E 031°07'0 0.0
2017-Dec-09 23:59S 29°46' E 031°07'0 0.0
2017-Dec-09 23:29S 29°46' E 031°07'0 0.0
2017-Dec-09 22:56S 29°46' E 031°07'0 0.0
2017-Dec-09 22:30S 29°46' E 031°07'0 0.0
2017-Dec-09 21:55S 29°46' E 031°07'0 0.0
2017-Dec-09 21:28S 29°46' E 031°07'0 0.0
2017-Dec-09 20:55S 29°46' E 031°07'0 0.0
2017-Dec-09 20:25S 29°46' E 031°06'0 0.0
2017-Dec-09 19:58S 29°46' E 031°06'0 0.0
2017-Dec-09 19:28S 29°46' E 031°06'0 0.1
2017-Dec-09 18:58S 29°47' E 031°06'0 0.0
2017-Dec-09 18:28S 29°47' E 031°06'0 0.0
2017-Dec-09 17:58S 29°47' E 031°06'0 0.0
2017-Dec-09 17:28S 29°47' E 031°06'0 0.0
2017-Dec-09 16:58S 29°47' E 031°06'0 0.0
2017-Dec-09 16:28S 29°47' E 031°06'0 0.0
2017-Dec-09 15:58S 29°47' E 031°06'0 0.0
2017-Dec-09 15:28S 29°47' E 031°06'0 0.0
2017-Dec-09 14:58S 29°47' E 031°06'0 0.0
2017-Dec-09 14:28S 29°47' E 031°06'0 0.1
2017-Dec-09 13:58S 29°47' E 031°06'0 0.1
2017-Dec-09 13:22S 29°47' E 031°06'0 0.1
2017-Dec-09 12:58S 29°47' E 031°06'0 0.1
2017-Dec-09 12:28S 29°47' E 031°06'0 0.2
2017-Dec-09 11:58S 29°47' E 031°06'0 0.2
2017-Dec-09 11:28S 29°47' E 031°06'0 0.1
2017-Dec-09 10:58S 29°47' E 031°06'0 0.0
2017-Dec-09 10:28S 29°47' E 031°06'0 0.0
2017-Dec-09 09:58S 29°47' E 031°06'0 0.0
2017-Dec-09 09:29S 29°47' E 031°06'0 0.0
2017-Dec-09 08:59S 29°47' E 031°06'0 0.0
2017-Dec-09 08:29S 29°47' E 031°06'0 0.0
2017-Dec-09 08:01S 29°47' E 031°06'0 0.0
2017-Dec-09 07:28S 29°47' E 031°06'0 0.0
2017-Dec-09 06:58S 29°47' E 031°06'0 0.0
2017-Dec-09 06:28S 29°47' E 031°06'0 0.0
2017-Dec-09 05:58S 29°47' E 031°06'0 0.0
2017-Dec-09 05:28S 29°47' E 031°06'0 0.1
2017-Dec-09 04:58S 29°47' E 031°06'0 0.0
2017-Dec-09 04:28S 29°47' E 031°06'0 0.0
2017-Dec-09 03:58S 29°47' E 031°06'0 0.0
2017-Dec-09 03:29S 29°47' E 031°06'0 0.0
2017-Dec-09 02:59S 29°47' E 031°06'0 0.0
2017-Dec-09 02:29S 29°47' E 031°06'0 0.0
2017-Dec-09 01:59S 29°47' E 031°06'0 0.1
2017-Dec-09 01:29S 29°47' E 031°06'0 0.0
2017-Dec-09 00:59S 29°47' E 031°06'0 0.0
2017-Dec-09 00:29S 29°47' E 031°06'0 0.0
2017-Dec-08 23:59S 29°47' E 031°06'0 0.0
2017-Dec-08 23:29S 29°47' E 031°06'0 0.0
2017-Dec-08 22:59S 29°47' E 031°06'0 0.0
2017-Dec-08 22:29S 29°47' E 031°06'0 0.0
2017-Dec-08 21:59S 29°47' E 031°06'0 0.0
2017-Dec-08 21:29S 29°47' E 031°06'0 0.0
2017-Dec-08 20:59S 29°47' E 031°06'0 0.0
2017-Dec-08 20:29S 29°47' E 031°06'0 0.0
2017-Dec-08 20:01S 29°47' E 031°06'0 0.0
2017-Dec-08 19:31S 29°47' E 031°06'0 0.0
2017-Dec-08 19:01S 29°47' E 031°06'0 0.0
2017-Dec-08 18:31S 29°47' E 031°06'0 0.0
2017-Dec-08 18:01S 29°47' E 031°06'0 0.0
2017-Dec-08 17:31S 29°47' E 031°06'0 0.0
2017-Dec-08 16:55S 29°47' E 031°06'0 0.0
2017-Dec-08 16:30S 29°47' E 031°06'0 0.0
2017-Dec-08 16:00S 29°47' E 031°06'0 0.0
2017-Dec-08 15:30S 29°47' E 031°06'0 0.0
2017-Dec-08 15:00S 29°47' E 031°06'0 0.0
2017-Dec-08 14:30S 29°47' E 031°06'0 0.0
2017-Dec-08 14:00S 29°47' E 031°06'0 0.1
2017-Dec-08 13:30S 29°47' E 031°06'0 0.0
2017-Dec-08 13:00S 29°47' E 031°06'0 0.0
2017-Dec-08 12:28S 29°47' E 031°06'0 0.0
2017-Dec-08 11:55S 29°47' E 031°06'0 0.0
2017-Dec-08 11:28S 29°47' E 031°06'0 0.0
2017-Dec-08 10:55S 29°47' E 031°06'0 0.0
2017-Dec-08 10:28S 29°47' E 031°06'0 0.0
2017-Dec-08 09:58S 29°47' E 031°06'0 0.0
2017-Dec-08 09:28S 29°47' E 031°06'0 0.0
2017-Dec-08 08:58S 29°47' E 031°06'0 0.0
2017-Dec-08 08:28S 29°47' E 031°06'0 0.0
2017-Dec-08 07:58S 29°47' E 031°06'0 0.0
2017-Dec-08 07:25S 29°47' E 031°06'0 0.0
2017-Dec-08 06:58S 29°47' E 031°06'0 0.0
2017-Dec-08 06:25S 29°47' E 031°06'0 0.0
2017-Dec-08 05:55S 29°47' E 031°06'0 0.0
2017-Dec-08 05:26S 29°47' E 031°06'0 0.0
2017-Dec-08 04:59S 29°47' E 031°06'0 0.0
2017-Dec-08 04:29S 29°47' E 031°06'0 0.0
2017-Dec-08 03:59S 29°47' E 031°06'0 0.0
2017-Dec-08 03:29S 29°47' E 031°06'0 0.0
2017-Dec-08 02:59S 29°47' E 031°06'0 0.0
2017-Dec-08 02:29S 29°47' E 031°06'0 0.0
2017-Dec-08 01:59S 29°47' E 031°06'0 0.0
2017-Dec-08 01:29S 29°47' E 031°06'0 0.0
2017-Dec-08 00:59S 29°47' E 031°06'0 0.0
2017-Dec-08 00:29S 29°47' E 031°06'0 0.0
2017-Dec-07 23:59S 29°47' E 031°06'0 0.0
2017-Dec-07 23:29S 29°47' E 031°06'0 0.0
2017-Dec-07 22:59S 29°47' E 031°06'0 0.0
2017-Dec-07 22:29S 29°47' E 031°06'0 0.0
2017-Dec-07 21:59S 29°47' E 031°06'0 0.0
2017-Dec-07 21:29S 29°47' E 031°06'0 0.0
2017-Dec-07 20:59S 29°47' E 031°06'0 0.0
2017-Dec-07 20:29S 29°47' E 031°06'0 0.0
2017-Dec-07 19:59S 29°47' E 031°06'0 0.0
2017-Dec-07 19:29S 29°47' E 031°06'0 0.0
2017-Dec-07 18:59S 29°47' E 031°06'0 0.0
2017-Dec-07 18:29S 29°47' E 031°06'0 0.0
2017-Dec-07 17:59S 29°47' E 031°06'0 0.0
2017-Dec-07 17:29S 29°47' E 031°06'0 0.0
2017-Dec-07 16:59S 29°47' E 031°06'0 0.0
2017-Dec-07 16:29S 29°47' E 031°06'0 0.0
2017-Dec-07 15:59S 29°47' E 031°06'0 0.0
2017-Dec-07 15:29S 29°47' E 031°06'0 0.0
2017-Dec-07 14:59S 29°47' E 031°06'0 0.0
2017-Dec-07 14:29S 29°47' E 031°06'0 0.1
2017-Dec-07 13:59S 29°47' E 031°06'0 0.0
2017-Dec-07 13:29S 29°47' E 031°06'0 0.0
2017-Dec-07 12:59S 29°47' E 031°06'0 0.0
2017-Dec-07 12:29S 29°47' E 031°06'0 0.0
2017-Dec-07 11:59S 29°47' E 031°06'0 0.0
2017-Dec-07 11:29S 29°47' E 031°06'0 0.0
2017-Dec-07 10:50S 29°47' E 031°06'0 0.0
2017-Dec-07 10:29S 29°47' E 031°06'0 0.0
2017-Dec-07 09:59S 29°47' E 031°06'0 0.0
2017-Dec-07 09:29S 29°47' E 031°06'0 0.0
2017-Dec-07 08:56S 29°47' E 031°06'0 0.0
2017-Dec-07 08:29S 29°47' E 031°06'0 0.0
2017-Dec-07 07:59S 29°47' E 031°06'0 0.1
2017-Dec-07 07:29S 29°47' E 031°06'0 0.0
2017-Dec-07 06:59S 29°47' E 031°06'0 0.0
2017-Dec-07 06:29S 29°47' E 031°06'0 0.0
2017-Dec-07 05:59S 29°47' E 031°06'0 0.0
2017-Dec-07 05:29S 29°47' E 031°06'0 0.0
2017-Dec-07 04:59S 29°47' E 031°06'0 0.0
2017-Dec-07 04:20S 29°47' E 031°06'0 0.1
2017-Dec-07 03:59S 29°47' E 031°06'0 0.0
2017-Dec-07 03:26S 29°47' E 031°06'0 0.0
2017-Dec-07 02:59S 29°47' E 031°06'0 0.0
2017-Dec-07 02:29S 29°47' E 031°06'0 0.0
2017-Dec-07 01:59S 29°47' E 031°06'0 0.0
2017-Dec-07 01:29S 29°47' E 031°06'0 0.1
2017-Dec-07 00:59S 29°47' E 031°06'0 0.0
2017-Dec-07 00:29S 29°47' E 031°06'0 0.0
2017-Dec-06 23:59S 29°47' E 031°06'0 0.0
2017-Dec-06 23:29S 29°47' E 031°06'0 0.0
2017-Dec-06 22:59S 29°47' E 031°06'0 0.0
2017-Dec-06 22:29S 29°47' E 031°06'0 0.0
2017-Dec-06 21:59S 29°47' E 031°06'0 0.0
2017-Dec-06 21:29S 29°47' E 031°06'0 0.0
2017-Dec-06 20:59S 29°47' E 031°06'  
2017-Dec-04 10:22S 29°46' E 031°07'0 0.0
2017-Dec-04 09:58S 29°46' E 031°07'0 0.0
2017-Dec-04 09:28S 29°46' E 031°07'0 0.0
2017-Dec-04 08:55S 29°46' E 031°07'0 0.0
2017-Dec-04 08:29S 29°46' E 031°07'0 0.0
2017-Dec-04 07:59S 29°46' E 031°06'0 0.0
2017-Dec-04 07:29S 29°46' E 031°06'0 0.0
2017-Dec-04 06:59S 29°46' E 031°07'0 0.0
2017-Dec-04 06:29S 29°47' E 031°06'0 0.0
2017-Dec-04 05:59S 29°47' E 031°06'0 0.0
2017-Dec-04 05:29S 29°47' E 031°06'0 0.0
2017-Dec-04 04:59S 29°47' E 031°06'0 0.1
2017-Dec-04 04:29S 29°47' E 031°07'0 0.0
2017-Dec-04 03:59S 29°47' E 031°07'0 0.0
2017-Dec-04 03:29S 29°46' E 031°07'0 0.0
2017-Dec-04 02:59S 29°46' E 031°07'0 0.0
2017-Dec-04 02:29S 29°46' E 031°07'0 0.0
2017-Dec-04 01:59S 29°46' E 031°07'0 0.0
2017-Dec-04 01:29S 29°46' E 031°07'0 0.0
2017-Dec-04 00:59S 29°46' E 031°07'0 0.0
2017-Dec-04 00:29S 29°46' E 031°07'0 0.0
2017-Dec-03 23:59S 29°46' E 031°07'0 0.0
2017-Dec-03 23:29S 29°46' E 031°07'0 0.0
2017-Dec-03 22:59S 29°46' E 031°07'0 0.0
2017-Dec-03 22:29S 29°46' E 031°07'0 0.0
2017-Dec-03 21:59S 29°46' E 031°07'0 0.0
2017-Dec-03 21:29S 29°46' E 031°07'0 0.0
2017-Dec-03 20:59S 29°46' E 031°07'0 0.1
2017-Dec-03 20:29S 29°46' E 031°07'0 0.0
2017-Dec-03 19:59S 29°46' E 031°07'0 0.1
2017-Dec-03 19:29S 29°46' E 031°07'0 0.1
2017-Dec-03 18:59S 29°46' E 031°07'0 0.0
2017-Dec-03 18:29S 29°46' E 031°07'0 0.0
2017-Dec-03 17:59S 29°46' E 031°07'0 0.0
2017-Dec-03 17:29S 29°46' E 031°07'0 0.0
2017-Dec-03 16:59S 29°46' E 031°07'0 0.0
2017-Dec-03 16:29S 29°46' E 031°07'0 0.0
2017-Dec-03 15:59S 29°46' E 031°07'0 0.0
2017-Dec-03 15:29S 29°46' E 031°07'0 0.0
2017-Dec-03 14:59S 29°46' E 031°07'0 0.0
2017-Dec-03 14:29S 29°46' E 031°07'0 0.0
2017-Dec-03 13:59S 29°46' E 031°07'0 0.0
2017-Dec-03 13:29S 29°46' E 031°07'0 0.0
2017-Dec-03 12:59S 29°46' E 031°07'0 0.0
2017-Dec-03 12:29S 29°46' E 031°07'0 0.0
2017-Dec-03 11:59S 29°46' E 031°07'0 0.0
2017-Dec-03 11:29S 29°46' E 031°07'0 0.0
2017-Dec-03 10:59S 29°46' E 031°07'0 0.0
2017-Dec-03 10:29S 29°46' E 031°07'0 0.0
2017-Dec-03 09:59S 29°46' E 031°07'0 0.0
2017-Dec-03 09:29S 29°46' E 031°07'0 0.0
2017-Dec-03 08:59S 29°46' E 031°07'0 0.0
2017-Dec-03 08:29S 29°46' E 031°07'0 0.0
2017-Dec-03 07:59S 29°46' E 031°07'0 0.0
2017-Dec-03 07:29S 29°47' E 031°07'0 0.0
2017-Dec-03 06:59S 29°47' E 031°07'0 0.1
2017-Dec-03 06:29S 29°47' E 031°07'0 0.0
2017-Dec-03 05:59S 29°47' E 031°07'0 0.4
2017-Dec-03 05:29S 29°47' E 031°07'0 0.2
2017-Dec-03 04:59S 29°47' E 031°07'0 0.2
2017-Dec-03 04:29S 29°47' E 031°06'0 0.0
2017-Dec-03 03:59S 29°47' E 031°06'0 0.0
2017-Dec-03 03:29S 29°47' E 031°06'0 0.0
2017-Dec-03 02:59S 29°47' E 031°06'0 0.0
2017-Dec-03 02:29S 29°47' E 031°06'0 0.0
2017-Dec-03 01:59S 29°47' E 031°06'0 0.0
2017-Dec-03 01:29S 29°47' E 031°06'0 0.0
2017-Dec-03 00:59S 29°47' E 031°06'0 0.0
2017-Dec-03 00:29S 29°47' E 031°06'0 0.0
2017-Dec-02 23:59S 29°47' E 031°07'0 0.0
2017-Dec-02 23:29S 29°47' E 031°06'0 0.1
2017-Dec-02 22:59S 29°47' E 031°06'0 0.0
2017-Dec-02 22:29S 29°47' E 031°06'0 0.0
2017-Dec-02 21:59S 29°47' E 031°06'0 0.0
2017-Dec-02 21:29S 29°47' E 031°06'0 0.0
2017-Dec-02 20:59S 29°47' E 031°06'0 0.0
2017-Dec-02 20:30S 29°47' E 031°06'0 0.0
2017-Dec-02 19:59S 29°47' E 031°06'0 0.0
2017-Dec-02 19:29S 29°47' E 031°06'0 0.0
2017-Dec-02 18:59S 29°47' E 031°06'0 0.1
2017-Dec-02 18:29S 29°47' E 031°06'0 0.0
2017-Dec-02 17:59S 29°47' E 031°06'0 0.0
2017-Dec-02 17:29S 29°47' E 031°06'0 0.0
2017-Dec-02 16:59S 29°47' E 031°06'0 0.0
2017-Dec-02 16:29S 29°47' E 031°06'0 0.0
2017-Dec-02 15:59S 29°47' E 031°06'0 0.0
2017-Dec-02 15:29S 29°47' E 031°06'0 0.1
2017-Dec-02 14:59S 29°47' E 031°06'0 0.0
2017-Dec-02 14:29S 29°47' E 031°06'0 0.0
2017-Dec-02 13:59S 29°47' E 031°06'0 0.0
2017-Dec-02 13:29S 29°47' E 031°06'0 0.0
2017-Dec-02 12:59S 29°47' E 031°06'0 0.0
2017-Dec-02 12:29S 29°47' E 031°06'0 0.0
2017-Dec-02 11:59S 29°47' E 031°06'0 0.0
2017-Dec-02 11:29S 29°47' E 031°06'0 0.1
2017-Dec-02 11:00S 29°47' E 031°06'1 1.8
2017-Dec-02 10:30S 29°47' E 031°07'3 5.6
2017-Dec-02 10:00S 29°50' E 031°09'  
Track history (hours):
 
Tides and Currents Weather Stations Pressure Air Temp Water Temp Dewpoint Dewpoint Depression Visibility Wind Speed Wind Dir Waves Ship Positions

Mt Champion Express

Last reported at 2017-Dec-12 09:37 UTC. Time now 2017-Dec-17 09:44 UTC.
Position S 29°42' E 031°51'.

Length 192 m; draft 7 m.

Type: Tanker. MMSI: 636013968.

Date/timePositionNaut miles runAvg speedWind from/ knotsBaromVisibWave heightAir tempDewpointWater temp
2017-Dec-12 09:37S 29°42' E 031°51'110.4
2017-Dec-12 09:29S 29°42' E 031°50'510.3
2017-Dec-12 09:00S 29°43' E 031°44'510.0
2017-Dec-12 08:30S 29°44' E 031°39'510.0
2017-Dec-12 08:00S 29°45' E 031°33'611.4
2017-Dec-12 07:30S 29°46' E 031°27'611.8
2017-Dec-12 07:00S 29°47' E 031°20'612.7
2017-Dec-12 06:30S 29°49' E 031°13'611.1
2017-Dec-12 06:01S 29°50' E 031°07'4 8.0
2017-Dec-12 05:30S 29°53' E 031°03'0 0.8
2017-Dec-12 05:00S 29°53' E 031°03'0 0.0
2017-Dec-12 04:30S 29°53' E 031°03'0 0.0
2017-Dec-12 04:00S 29°53' E 031°03'0 0.0
2017-Dec-12 03:30S 29°53' E 031°03'0 0.0
2017-Dec-12 03:00S 29°53' E 031°03'0 0.0
2017-Dec-12 02:30S 29°53' E 031°03'0 0.0
2017-Dec-12 02:00S 29°53' E 031°03'0 0.0
2017-Dec-12 01:30S 29°53' E 031°03'0 0.0
2017-Dec-12 01:00S 29°53' E 031°03'0 0.0
2017-Dec-12 00:30S 29°53' E 031°03'0 0.0
2017-Dec-11 23:57S 29°53' E 031°03'0 0.0
2017-Dec-11 23:30S 29°53' E 031°03'0 0.0
2017-Dec-11 23:00S 29°53' E 031°03'0 0.0
2017-Dec-11 22:30S 29°53' E 031°03'0 0.0
2017-Dec-11 22:00S 29°53' E 031°03'0 0.0
2017-Dec-11 21:30S 29°53' E 031°03'0 0.0
2017-Dec-11 21:00S 29°53' E 031°03'0 0.0
2017-Dec-11 20:30S 29°53' E 031°03'0 0.0
2017-Dec-11 20:00S 29°53' E 031°03'0 0.0
2017-Dec-11 19:30S 29°53' E 031°03'0 0.0
2017-Dec-11 19:00S 29°53' E 031°03'0 0.0
2017-Dec-11 18:30S 29°53' E 031°03'0 0.0
2017-Dec-11 18:00S 29°53' E 031°03'0 0.0
2017-Dec-11 17:30S 29°53' E 031°03'0 0.0
2017-Dec-11 17:00S 29°53' E 031°03'0 0.0
2017-Dec-11 16:27S 29°53' E 031°03'0 0.0
2017-Dec-11 16:00S 29°53' E 031°03'0 0.0
2017-Dec-11 15:30S 29°53' E 031°03'0 0.0
2017-Dec-11 15:00S 29°53' E 031°03'0 0.0
2017-Dec-11 14:30S 29°53' E 031°03'0 0.0
2017-Dec-11 14:00S 29°53' E 031°03'0 0.0
2017-Dec-11 13:30S 29°53' E 031°03'0 0.0
2017-Dec-11 13:00S 29°53' E 031°03'0 0.0
2017-Dec-11 12:30S 29°53' E 031°03'0 0.0
2017-Dec-11 12:00S 29°53' E 031°03'0 0.0
2017-Dec-11 11:30S 29°53' E 031°03'0 0.0
2017-Dec-11 11:00S 29°53' E 031°03'1 1.9
2017-Dec-11 10:30S 29°52' E 031°03'3 6.2
2017-Dec-11 10:00S 29°50' E 031°05'3 5.6
2017-Dec-11 09:30S 29°47' E 031°06'0 0.5
2017-Dec-11 09:00S 29°47' E 031°06'0 0.4
2017-Dec-11 08:30S 29°47' E 031°07'0 0.4
2017-Dec-11 07:56S 29°47' E 031°06'0 0.0
2017-Dec-11 07:29S 29°47' E 031°06'0 0.1
2017-Dec-11 06:59S 29°47' E 031°06'0 0.0
2017-Dec-11 06:29S 29°47' E 031°06'0 0.1
2017-Dec-11 05:59S 29°47' E 031°06'0 0.0
2017-Dec-11 05:29S 29°47' E 031°06'0 0.1
2017-Dec-11 04:56S 29°47' E 031°06'0 0.0
2017-Dec-11 04:29S 29°47' E 031°06'0 0.0
2017-Dec-11 03:59S 29°47' E 031°06'0 0.0
2017-Dec-11 03:29S 29°46' E 031°06'0 0.0
2017-Dec-11 02:56S 29°47' E 031°06'0 0.0
2017-Dec-11 02:29S 29°47' E 031°06'0 0.0
2017-Dec-11 01:56S 29°47' E 031°06'0 0.1
2017-Dec-11 01:29S 29°46' E 031°06'0 0.1
2017-Dec-11 00:59S 29°47' E 031°06'0 0.0
2017-Dec-11 00:29S 29°46' E 031°06'0 0.0
2017-Dec-10 23:59S 29°46' E 031°06'0 0.0
2017-Dec-10 23:26S 29°46' E 031°06'0 0.0
2017-Dec-10 22:59S 29°46' E 031°06'0 0.1
2017-Dec-10 22:29S 29°47' E 031°06'0 0.1
2017-Dec-10 21:59S 29°46' E 031°06'0 0.0
2017-Dec-10 21:29S 29°46' E 031°06'0 0.0
2017-Dec-10 20:59S 29°46' E 031°06'0 0.0
2017-Dec-10 20:29S 29°46' E 031°06'0 0.0
2017-Dec-10 19:59S 29°47' E 031°06'0 0.0
2017-Dec-10 19:29S 29°46' E 031°06'0 0.0
2017-Dec-10 18:59S 29°46' E 031°06'0 0.0
2017-Dec-10 18:29S 29°47' E 031°06'0 0.0
2017-Dec-10 17:59S 29°46' E 031°06'0 0.0
2017-Dec-10 17:29S 29°46' E 031°06'0 0.0
2017-Dec-10 16:59S 29°46' E 031°06'0 0.0
2017-Dec-10 16:29S 29°46' E 031°07'0 0.0
2017-Dec-10 15:59S 29°46' E 031°06'0 0.0
2017-Dec-10 15:29S 29°46' E 031°07'0 0.0
2017-Dec-10 14:59S 29°46' E 031°06'0 0.0
2017-Dec-10 14:29S 29°46' E 031°07'0 0.0
2017-Dec-10 13:59S 29°46' E 031°07'0 0.0
2017-Dec-10 13:29S 29°46' E 031°07'0 0.0
2017-Dec-10 12:59S 29°46' E 031°07'0 0.0
2017-Dec-10 12:29S 29°46' E 031°07'0 0.0
2017-Dec-10 11:59S 29°46' E 031°07'0 0.0
2017-Dec-10 11:26S 29°46' E 031°07'0 0.0
2017-Dec-10 10:56S 29°46' E 031°07'0 0.0
2017-Dec-10 10:29S 29°46' E 031°07'0 0.0
2017-Dec-10 09:59S 29°46' E 031°07'0 0.0
2017-Dec-10 09:29S 29°46' E 031°07'0 0.0
2017-Dec-10 08:59S 29°46' E 031°07'0 0.0
2017-Dec-10 08:29S 29°46' E 031°07'0 0.0
2017-Dec-10 07:59S 29°46' E 031°07'0 0.0
2017-Dec-10 07:29S 29°46' E 031°07'0 0.0
2017-Dec-10 06:59S 29°46' E 031°07'0 0.0
2017-Dec-10 06:29S 29°46' E 031°07'0 0.0
2017-Dec-10 05:59S 29°46' E 031°07'0 0.0
2017-Dec-10 05:29S 29°46' E 031°07'0 0.0
2017-Dec-10 04:59S 29°46' E 031°07'0 0.0
2017-Dec-10 04:29S 29°46' E 031°07'0 0.0
2017-Dec-10 03:59S 29°46' E 031°07'0 0.0
2017-Dec-10 03:29S 29°46' E 031°07'0 0.0
2017-Dec-10 02:59S 29°46' E 031°07'0 0.0
2017-Dec-10 02:29S 29°46' E 031°07'0 0.0
2017-Dec-10 01:59S 29°46' E 031°07'0 0.0
2017-Dec-10 01:29S 29°46' E 031°07'0 0.0
2017-Dec-10 00:59S 29°46' E 031°07'0 0.0
2017-Dec-10 00:29S 29°46' E 031°07'0 0.0
2017-Dec-09 23:59S 29°46' E 031°07'0 0.0
2017-Dec-09 23:29S 29°46' E 031°07'0 0.0
2017-Dec-09 22:56S 29°46' E 031°07'0 0.0
2017-Dec-09 22:30S 29°46' E 031°07'0 0.0
2017-Dec-09 21:55S 29°46' E 031°07'0 0.0
2017-Dec-09 21:28S 29°46' E 031°07'0 0.0
2017-Dec-09 20:55S 29°46' E 031°07'0 0.0
2017-Dec-09 20:25S 29°46' E 031°06'0 0.0
2017-Dec-09 19:58S 29°46' E 031°06'0 0.0
2017-Dec-09 19:28S 29°46' E 031°06'0 0.1
2017-Dec-09 18:58S 29°47' E 031°06'0 0.0
2017-Dec-09 18:28S 29°47' E 031°06'0 0.0
2017-Dec-09 17:58S 29°47' E 031°06'0 0.0
2017-Dec-09 17:28S 29°47' E 031°06'0 0.0
2017-Dec-09 16:58S 29°47' E 031°06'0 0.0
2017-Dec-09 16:28S 29°47' E 031°06'0 0.0
2017-Dec-09 15:58S 29°47' E 031°06'0 0.0
2017-Dec-09 15:28S 29°47' E 031°06'0 0.0
2017-Dec-09 14:58S 29°47' E 031°06'0 0.0
2017-Dec-09 14:28S 29°47' E 031°06'0 0.1
2017-Dec-09 13:58S 29°47' E 031°06'0 0.1
2017-Dec-09 13:22S 29°47' E 031°06'0 0.1
2017-Dec-09 12:58S 29°47' E 031°06'0 0.1
2017-Dec-09 12:28S 29°47' E 031°06'0 0.2
2017-Dec-09 11:58S 29°47' E 031°06'0 0.2
2017-Dec-09 11:28S 29°47' E 031°06'0 0.1
2017-Dec-09 10:58S 29°47' E 031°06'0 0.0
2017-Dec-09 10:28S 29°47' E 031°06'0 0.0
2017-Dec-09 09:58S 29°47' E 031°06'0 0.0
2017-Dec-09 09:29S 29°47' E 031°06'0 0.0
2017-Dec-09 08:59S 29°47' E 031°06'0 0.0
2017-Dec-09 08:29S 29°47' E 031°06'0 0.0
2017-Dec-09 08:01S 29°47' E 031°06'0 0.0
2017-Dec-09 07:28S 29°47' E 031°06'0 0.0
2017-Dec-09 06:58S 29°47' E 031°06'0 0.0
2017-Dec-09 06:28S 29°47' E 031°06'0 0.0
2017-Dec-09 05:58S 29°47' E 031°06'0 0.0
2017-Dec-09 05:28S 29°47' E 031°06'0 0.1
2017-Dec-09 04:58S 29°47' E 031°06'0 0.0
2017-Dec-09 04:28S 29°47' E 031°06'0 0.0
2017-Dec-09 03:58S 29°47' E 031°06'0 0.0
2017-Dec-09 03:29S 29°47' E 031°06'0 0.0
2017-Dec-09 02:59S 29°47' E 031°06'0 0.0
2017-Dec-09 02:29S 29°47' E 031°06'0 0.0
2017-Dec-09 01:59S 29°47' E 031°06'0 0.1
2017-Dec-09 01:29S 29°47' E 031°06'0 0.0
2017-Dec-09 00:59S 29°47' E 031°06'0 0.0
2017-Dec-09 00:29S 29°47' E 031°06'0 0.0
2017-Dec-08 23:59S 29°47' E 031°06'0 0.0
2017-Dec-08 23:29S 29°47' E 031°06'0 0.0
2017-Dec-08 22:59S 29°47' E 031°06'0 0.0
2017-Dec-08 22:29S 29°47' E 031°06'0 0.0
2017-Dec-08 21:59S 29°47' E 031°06'0 0.0
2017-Dec-08 21:29S 29°47' E 031°06'0 0.0
2017-Dec-08 20:59S 29°47' E 031°06'0 0.0
2017-Dec-08 20:29S 29°47' E 031°06'0 0.0
2017-Dec-08 20:01S 29°47' E 031°06'0 0.0
2017-Dec-08 19:31S 29°47' E 031°06'0 0.0
2017-Dec-08 19:01S 29°47' E 031°06'0 0.0
2017-Dec-08 18:31S 29°47' E 031°06'0 0.0
2017-Dec-08 18:01S 29°47' E 031°06'0 0.0
2017-Dec-08 17:31S 29°47' E 031°06'0 0.0
2017-Dec-08 16:55S 29°47' E 031°06'0 0.0
2017-Dec-08 16:30S 29°47' E 031°06'0 0.0
2017-Dec-08 16:00S 29°47' E 031°06'0 0.0
2017-Dec-08 15:30S 29°47' E 031°06'0 0.0
2017-Dec-08 15:00S 29°47' E 031°06'0 0.0
2017-Dec-08 14:30S 29°47' E 031°06'0 0.0
2017-Dec-08 14:00S 29°47' E 031°06'0 0.1
2017-Dec-08 13:30S 29°47' E 031°06'0 0.0
2017-Dec-08 13:00S 29°47' E 031°06'0 0.0
2017-Dec-08 12:28S 29°47' E 031°06'0 0.0
2017-Dec-08 11:55S 29°47' E 031°06'0 0.0
2017-Dec-08 11:28S 29°47' E 031°06'0 0.0
2017-Dec-08 10:55S 29°47' E 031°06'0 0.0
2017-Dec-08 10:28S 29°47' E 031°06'0 0.0
2017-Dec-08 09:58S 29°47' E 031°06'0 0.0
2017-Dec-08 09:28S 29°47' E 031°06'0 0.0
2017-Dec-08 08:58S 29°47' E 031°06'0 0.0
2017-Dec-08 08:28S 29°47' E 031°06'0 0.0
2017-Dec-08 07:58S 29°47' E 031°06'0 0.0
2017-Dec-08 07:25S 29°47' E 031°06'0 0.0
2017-Dec-08 06:58S 29°47' E 031°06'0 0.0
2017-Dec-08 06:25S 29°47' E 031°06'0 0.0
2017-Dec-08 05:55S 29°47' E 031°06'0 0.0
2017-Dec-08 05:26S 29°47' E 031°06'0 0.0
2017-Dec-08 04:59S 29°47' E 031°06'0 0.0
2017-Dec-08 04:29S 29°47' E 031°06'0 0.0
2017-Dec-08 03:59S 29°47' E 031°06'0 0.0
2017-Dec-08 03:29S 29°47' E 031°06'0 0.0
2017-Dec-08 02:59S 29°47' E 031°06'0 0.0
2017-Dec-08 02:29S 29°47' E 031°06'0 0.0
2017-Dec-08 01:59S 29°47' E 031°06'0 0.0
2017-Dec-08 01:29S 29°47' E 031°06'0 0.0
2017-Dec-08 00:59S 29°47' E 031°06'0 0.0
2017-Dec-08 00:29S 29°47' E 031°06'0 0.0
2017-Dec-07 23:59S 29°47' E 031°06'0 0.0
2017-Dec-07 23:29S 29°47' E 031°06'0 0.0
2017-Dec-07 22:59S 29°47' E 031°06'0 0.0
2017-Dec-07 22:29S 29°47' E 031°06'0 0.0
2017-Dec-07 21:59S 29°47' E 031°06'0 0.0
2017-Dec-07 21:29S 29°47' E 031°06'0 0.0
2017-Dec-07 20:59S 29°47' E 031°06'0 0.0
2017-Dec-07 20:29S 29°47' E 031°06'0 0.0
2017-Dec-07 19:59S 29°47' E 031°06'0 0.0
2017-Dec-07 19:29S 29°47' E 031°06'0 0.0
2017-Dec-07 18:59S 29°47' E 031°06'0 0.0
2017-Dec-07 18:29S 29°47' E 031°06'0 0.0
2017-Dec-07 17:59S 29°47' E 031°06'0 0.0
2017-Dec-07 17:29S 29°47' E 031°06'0 0.0
2017-Dec-07 16:59S 29°47' E 031°06'0 0.0
2017-Dec-07 16:29S 29°47' E 031°06'0 0.0
2017-Dec-07 15:59S 29°47' E 031°06'0 0.0
2017-Dec-07 15:29S 29°47' E 031°06'0 0.0
2017-Dec-07 14:59S 29°47' E 031°06'0 0.0
2017-Dec-07 14:29S 29°47' E 031°06'0 0.1
2017-Dec-07 13:59S 29°47' E 031°06'0 0.0
2017-Dec-07 13:29S 29°47' E 031°06'0 0.0
2017-Dec-07 12:59S 29°47' E 031°06'0 0.0
2017-Dec-07 12:29S 29°47' E 031°06'0 0.0
2017-Dec-07 11:59S 29°47' E 031°06'0 0.0
2017-Dec-07 11:29S 29°47' E 031°06'0 0.0
2017-Dec-07 10:50S 29°47' E 031°06'0 0.0
2017-Dec-07 10:29S 29°47' E 031°06'0 0.0
2017-Dec-07 09:59S 29°47' E 031°06'0 0.0
2017-Dec-07 09:29S 29°47' E 031°06'0 0.0
2017-Dec-07 08:56S 29°47' E 031°06'0 0.0
2017-Dec-07 08:29S 29°47' E 031°06'0 0.0
2017-Dec-07 07:59S 29°47' E 031°06'0 0.1
2017-Dec-07 07:29S 29°47' E 031°06'0 0.0
2017-Dec-07 06:59S 29°47' E 031°06'0 0.0
2017-Dec-07 06:29S 29°47' E 031°06'0 0.0
2017-Dec-07 05:59S 29°47' E 031°06'0 0.0
2017-Dec-07 05:29S 29°47' E 031°06'0 0.0
2017-Dec-07 04:59S 29°47' E 031°06'0 0.0
2017-Dec-07 04:20S 29°47' E 031°06'0 0.1
2017-Dec-07 03:59S 29°47' E 031°06'0 0.0
2017-Dec-07 03:26S 29°47' E 031°06'0 0.0
2017-Dec-07 02:59S 29°47' E 031°06'0 0.0
2017-Dec-07 02:29S 29°47' E 031°06'0 0.0
2017-Dec-07 01:59S 29°47' E 031°06'0 0.0
2017-Dec-07 01:29S 29°47' E 031°06'0 0.1
2017-Dec-07 00:59S 29°47' E 031°06'0 0.0
2017-Dec-07 00:29S 29°47' E 031°06'0 0.0
2017-Dec-06 23:59S 29°47' E 031°06'0 0.0
2017-Dec-06 23:29S 29°47' E 031°06'0 0.0
2017-Dec-06 22:59S 29°47' E 031°06'0 0.0
2017-Dec-06 22:29S 29°47' E 031°06'0 0.0
2017-Dec-06 21:59S 29°47' E 031°06'0 0.0
2017-Dec-06 21:29S 29°47' E 031°06'0 0.0
2017-Dec-06 20:59S 29°47' E 031°06'  
2017-Dec-04 10:22S 29°46' E 031°07'0 0.0
2017-Dec-04 09:58S 29°46' E 031°07'0 0.0
2017-Dec-04 09:28S 29°46' E 031°07'0 0.0
2017-Dec-04 08:55S 29°46' E 031°07'0 0.0
2017-Dec-04 08:29S 29°46' E 031°07'0 0.0
2017-Dec-04 07:59S 29°46' E 031°06'0 0.0
2017-Dec-04 07:29S 29°46' E 031°06'0 0.0
2017-Dec-04 06:59S 29°46' E 031°07'0 0.0
2017-Dec-04 06:29S 29°47' E 031°06'0 0.0
2017-Dec-04 05:59S 29°47' E 031°06'0 0.0
2017-Dec-04 05:29S 29°47' E 031°06'0 0.0
2017-Dec-04 04:59S 29°47' E 031°06'0 0.1
2017-Dec-04 04:29S 29°47' E 031°07'0 0.0
2017-Dec-04 03:59S 29°47' E 031°07'0 0.0
2017-Dec-04 03:29S 29°46' E 031°07'0 0.0
2017-Dec-04 02:59S 29°46' E 031°07'0 0.0
2017-Dec-04 02:29S 29°46' E 031°07'0 0.0
2017-Dec-04 01:59S 29°46' E 031°07'0 0.0
2017-Dec-04 01:29S 29°46' E 031°07'0 0.0
2017-Dec-04 00:59S 29°46' E 031°07'0 0.0
2017-Dec-04 00:29S 29°46' E 031°07'0 0.0
2017-Dec-03 23:59S 29°46' E 031°07'0 0.0
2017-Dec-03 23:29S 29°46' E 031°07'0 0.0
2017-Dec-03 22:59S 29°46' E 031°07'0 0.0
2017-Dec-03 22:29S 29°46' E 031°07'0 0.0
2017-Dec-03 21:59S 29°46' E 031°07'0 0.0
2017-Dec-03 21:29S 29°46' E 031°07'0 0.0
2017-Dec-03 20:59S 29°46' E 031°07'0 0.1
2017-Dec-03 20:29S 29°46' E 031°07'0 0.0
2017-Dec-03 19:59S 29°46' E 031°07'0 0.1
2017-Dec-03 19:29S 29°46' E 031°07'0 0.1
2017-Dec-03 18:59S 29°46' E 031°07'0 0.0
2017-Dec-03 18:29S 29°46' E 031°07'0 0.0
2017-Dec-03 17:59S 29°46' E 031°07'0 0.0
2017-Dec-03 17:29S 29°46' E 031°07'0 0.0
2017-Dec-03 16:59S 29°46' E 031°07'0 0.0
2017-Dec-03 16:29S 29°46' E 031°07'0 0.0
2017-Dec-03 15:59S 29°46' E 031°07'0 0.0
2017-Dec-03 15:29S 29°46' E 031°07'0 0.0
2017-Dec-03 14:59S 29°46' E 031°07'0 0.0
2017-Dec-03 14:29S 29°46' E 031°07'0 0.0
2017-Dec-03 13:59S 29°46' E 031°07'0 0.0
2017-Dec-03 13:29S 29°46' E 031°07'0 0.0
2017-Dec-03 12:59S 29°46' E 031°07'0 0.0
2017-Dec-03 12:29S 29°46' E 031°07'0 0.0
2017-Dec-03 11:59S 29°46' E 031°07'0 0.0
2017-Dec-03 11:29S 29°46' E 031°07'0 0.0
2017-Dec-03 10:59S 29°46' E 031°07'0 0.0
2017-Dec-03 10:29S 29°46' E 031°07'0 0.0
2017-Dec-03 09:59S 29°46' E 031°07'0 0.0
2017-Dec-03 09:29S 29°46' E 031°07'0 0.0
2017-Dec-03 08:59S 29°46' E 031°07'0 0.0
2017-Dec-03 08:29S 29°46' E 031°07'0 0.0
2017-Dec-03 07:59S 29°46' E 031°07'0 0.0
2017-Dec-03 07:29S 29°47' E 031°07'0 0.0
2017-Dec-03 06:59S 29°47' E 031°07'0 0.1
2017-Dec-03 06:29S 29°47' E 031°07'0 0.0
2017-Dec-03 05:59S 29°47' E 031°07'0 0.4
2017-Dec-03 05:29S 29°47' E 031°07'0 0.2
2017-Dec-03 04:59S 29°47' E 031°07'0 0.2
2017-Dec-03 04:29S 29°47' E 031°06'0 0.0
2017-Dec-03 03:59S 29°47' E 031°06'0 0.0
2017-Dec-03 03:29S 29°47' E 031°06'0 0.0
2017-Dec-03 02:59S 29°47' E 031°06'0 0.0
2017-Dec-03 02:29S 29°47' E 031°06'0 0.0
2017-Dec-03 01:59S 29°47' E 031°06'0 0.0
2017-Dec-03 01:29S 29°47' E 031°06'0 0.0
2017-Dec-03 00:59S 29°47' E 031°06'0 0.0
2017-Dec-03 00:29S 29°47' E 031°06'0 0.0
2017-Dec-02 23:59S 29°47' E 031°07'0 0.0
2017-Dec-02 23:29S 29°47' E 031°06'0 0.1
2017-Dec-02 22:59S 29°47' E 031°06'0 0.0
2017-Dec-02 22:29S 29°47' E 031°06'0 0.0
2017-Dec-02 21:59S 29°47' E 031°06'0 0.0
2017-Dec-02 21:29S 29°47' E 031°06'0 0.0
2017-Dec-02 20:59S 29°47' E 031°06'0 0.0
2017-Dec-02 20:30S 29°47' E 031°06'0 0.0
2017-Dec-02 19:59S 29°47' E 031°06'0 0.0
2017-Dec-02 19:29S 29°47' E 031°06'0 0.0
2017-Dec-02 18:59S 29°47' E 031°06'0 0.1
2017-Dec-02 18:29S 29°47' E 031°06'0 0.0
2017-Dec-02 17:59S 29°47' E 031°06'0 0.0
2017-Dec-02 17:29S 29°47' E 031°06'0 0.0
2017-Dec-02 16:59S 29°47' E 031°06'0 0.0
2017-Dec-02 16:29S 29°47' E 031°06'0 0.0
2017-Dec-02 15:59S 29°47' E 031°06'0 0.0
2017-Dec-02 15:29S 29°47' E 031°06'0 0.1
2017-Dec-02 14:59S 29°47' E 031°06'0 0.0
2017-Dec-02 14:29S 29°47' E 031°06'0 0.0
2017-Dec-02 13:59S 29°47' E 031°06'0 0.0
2017-Dec-02 13:29S 29°47' E 031°06'0 0.0
2017-Dec-02 12:59S 29°47' E 031°06'0 0.0
2017-Dec-02 12:29S 29°47' E 031°06'0 0.0
2017-Dec-02 11:59S 29°47' E 031°06'0 0.0
2017-Dec-02 11:29S 29°47' E 031°06'0 0.1
2017-Dec-02 11:00S 29°47' E 031°06'1 1.8
2017-Dec-02 10:30S 29°47' E 031°07'3 5.6
2017-Dec-02 10:00S 29°50' E 031°09'  

Dump ship's entire track history